Thursday, March 30, 2017, 2:23 PM EDT

KPOU, Poughkeepsie Dutchess Cty

Location: Wappingers Falls, NY, United States Lat: 41.633
Local Time: 2:23 PM EDT (18:23 GMT) Lon: -73.883
Time Zone: US/Eastern Elev: 167 ft

Show me the last for .
Show Decoded

2017-03-30 13:53 METAR KPOU 301753Z VRB03KT 10SM CLR 09/M06 A3017 RMK AO2 SLP215 T00941061 10094
                 21017 56025 =
2017-03-30 12:53 METAR KPOU 301653Z VRB03KT 10SM CLR 08/M06 A3019 RMK AO2 SLP223 T00781061 =
2017-03-30 11:53 METAR KPOU 301553Z 10SM CLR 07/M06 A3022 RMK AO2 SLP232 T00671056 =
2017-03-30 10:53 METAR KPOU 301453Z 02010KT 10SM CLR 05/M07 A3025 RMK AO2 SLP241 T00501067 58014
                 =
2017-03-30 09:53 METAR KPOU 301353Z 35009KT 10SM CLR 04/M07 A3027 RMK AO2 SLP249 T00391067 =
2017-03-30 08:53 METAR KPOU 301253Z 01008KT 10SM CLR 03/M05 A3027 RMK AO2 SLP248 T00281050 =
2017-03-30 07:53 METAR KPOU 301153Z 00000KT 10SM CLR M02/M03 A3029 RMK AO2 SLP255 T10171033 11011
                 21033 53019 =
2017-03-30 06:53 METAR KPOU 301053Z 00000KT 10SM CLR M03/M05 A3027 RMK AO2 SLP247 T10331050 =
2017-03-30 05:53 METAR KPOU 300953Z 00000KT 10SM CLR M03/M05 A3025 RMK AO2 SLP242 T10281050 =
2017-03-30 04:53 METAR KPOU 300853Z 00000KT 10SM CLR M03/M06 A3023 RMK AO2 SLP235 T10331056 53005
                 =
2017-03-30 03:53 METAR KPOU 300753Z 00000KT 10SM CLR M02/M05 A3021 RMK AO2 SLP229 T10221050 =
2017-03-30 02:53 METAR KPOU 300653Z 00000KT 10SM CLR M02/M05 A3020 RMK AO2 SLP223 T10221050 =
2017-03-30 01:53 METAR KPOU 300553Z 00000KT 10SM CLR M01/M05 A3022 RMK AO2 SLP231 T10111050 10067
                 21011 58004 =
2017-03-30 00:53 METAR KPOU 300453Z 00000KT 10SM CLR 01/M05 A3022 RMK AO2 SLP232 T00061050
                 401280006 =
2017-03-29 23:53 METAR KPOU 300353Z 00000KT 10SM CLR 03/M06 A3024 RMK AO2 SLP236 T00331061 =
2017-03-29 22:53 METAR KPOU 300253Z 36007KT 10SM CLR 04/M06 A3023 RMK AO2 SLP235 T00391061 51019
                 =
2017-03-29 21:53 METAR KPOU 300153Z 34009KT 10SM CLR 04/M06 A3023 RMK AO2 SLP234 T00441061 =
2017-03-29 20:53 METAR KPOU 300053Z 36012G19KT 10SM CLR 06/M06 A3021 RMK AO2 SLP227 T00561061 =
2017-03-29 19:53 METAR KPOU 292353Z 36013KT 10SM CLR 07/M06 A3017 RMK AO2 SLP216 T00671056 10128
                 20067 53032 =
2017-03-29 18:53 METAR KPOU 292253Z AUTO 35011KT 10SM CLR 08/M05 A3013 RMK AO2 SLP202 T00831050 =
2017-03-29 17:53 METAR KPOU 292153Z AUTO 35014G20KT 10SM FEW060 10/M04 A3010 RMK AO2 SLP192
                 T01001044 =
2017-03-29 16:53 METAR KPOU 292053Z AUTO 33011G18KT 10SM CLR 10/M04 A3008 RMK AO2 SLP184
                 T01001039 53003 =
2017-03-29 15:53 METAR KPOU 291953Z AUTO 32012G20KT 10SM CLR 11/M02 A3008 RMK AO2 SLP182
                 T01111022 =
2017-03-29 14:53 METAR KPOU 291853Z 35013G21KT 10SM CLR 12/M02 A3006 RMK AO2 SLP177 T01221017 =

Support USWX by starting your Amazon purchase here.